Time;durP1;ratioP1;P1;durP2;ratioP2;P2;SDS_P1;SDS_P2;PMS_P1;PMS_P2;Temp;Humidity;BMP_temperature;BMP_pressure;BME280_temperature;BME280_humidity;BME280_pressure;Samples;Min_cycle;Max_cycle;Signal;HPM_P1;HPM_P2
2021/11/30 00:00:37;;;;;;;13.48;6.90;;;;;;;3.17;74.07;98779.88;2619765;54;20045;-67
2021/11/30 00:03:09;;;;;;;9.10;5.68;;;;;;;3.17;74.33;98772.03;2619098;47;20043;-67
2021/11/30 00:05:39;;;;;;;12.80;6.45;;;;;;;3.17;74.46;98767.63;2618958;54;20041;-67
2021/11/30 00:08:08;;;;;;;8.68;6.15;;;;;;;3.17;74.14;98770.22;2619279;54;20034;-66
2021/11/30 00:10:47;;;;;;;10.07;6.35;;;;;;;3.13;73.81;98778.50;2619374;54;20030;-66
2021/11/30 00:13:18;;;;;;;12.13;7.20;;;;;;;3.11;74.08;98777.84;2618963;54;20034;-67
2021/11/30 00:15:49;;;;;;;12.52;6.72;;;;;;;3.06;74.04;98770.44;2620113;54;20030;-67
2021/11/30 00:18:22;;;;;;;12.45;5.90;;;;;;;3.05;73.76;98791.47;2618665;54;20050;-67
2021/11/30 00:20:51;;;;;;;7.55;5.30;;;;;;;3.09;74.12;98785.00;2619071;54;20034;-67
2021/11/30 00:23:22;;;;;;;13.95;7.10;;;;;;;3.11;73.71;98781.28;2620446;54;20042;-67
2021/11/30 00:25:51;;;;;;;8.55;5.38;;;;;;;3.02;73.69;98783.91;2621253;54;20038;-68
2021/11/30 00:28:21;;;;;;;14.48;6.38;;;;;;;3.00;73.46;98793.69;2621383;54;20038;-67
2021/11/30 00:30:51;;;;;;;10.10;6.18;;;;;;;3.02;73.54;98781.31;2621221;54;20570;-67
2021/11/30 00:33:23;;;;;;;9.82;5.53;;;;;;;3.02;73.78;98779.53;2621818;39;20433;-67
2021/11/30 00:35:53;;;;;;;10.00;5.28;;;;;;;3.03;73.29;98777.75;2621559;54;20022;-68
2021/11/30 00:38:23;;;;;;;8.30;5.50;;;;;;;3.01;73.22;98783.09;2620376;54;20029;-67
2021/11/30 00:40:52;;;;;;;7.38;5.18;;;;;;;3.03;73.32;98785.59;2621754;54;20034;-67
2021/11/30 00:43:26;;;;;;;11.88;5.90;;;;;;;3.03;73.18;98775.97;2622224;39;20434;-68
2021/11/30 00:45:58;;;;;;;10.30;6.60;;;;;;;3.04;72.99;98776.78;2620640;54;20037;-69
2021/11/30 00:48:32;;;;;;;12.23;6.30;;;;;;;3.03;73.11;98781.19;2619674;54;20035;-67
2021/11/30 00:51:03;;;;;;;;;;;;;;;3.01;73.09;98779.66;2620431;54;20045;-67
2021/11/30 00:53:33;;;;;;;10.88;5.85;;;;;;;2.92;73.41;98784.78;2620235;47;19938;-67
2021/11/30 00:56:02;;;;;;;9.32;5.95;;;;;;;2.90;73.32;98786.75;2621194;54;20034;-67
2021/11/30 00:58:32;;;;;;;12.05;6.25;;;;;;;2.88;73.61;98795.69;2620981;54;20034;-67
2021/11/30 01:01:02;;;;;;;7.18;6.22;;;;;;;2.93;73.64;98785.63;2622500;39;20481;-71
2021/11/30 01:03:35;;;;;;;13.88;6.70;;;;;;;3.00;73.65;98785.88;2622082;54;20074;-67
2021/11/30 01:06:05;;;;;;;9.68;5.95;;;;;;;2.98;73.41;98781.63;2622029;54;20041;-67
2021/11/30 01:08:34;;;;;;;9.40;5.18;;;;;;;2.98;73.31;98783.41;2621345;54;20034;-67
2021/11/30 01:11:05;;;;;;;8.25;5.05;;;;;;;3.02;72.74;98786.53;2621845;39;20414;-67
2021/11/30 01:13:36;;;;;;;9.23;5.00;;;;;;;3.02;73.13;98779.53;2622030;54;20030;-67
2021/11/30 01:16:06;;;;;;;7.95;5.60;;;;;;;3.04;73.11;98784.63;2620939;54;20034;-67
2021/11/30 01:18:39;;;;;;;7.25;5.60;;;;;;;3.01;72.64;98783.09;2621001;54;20034;-67
2021/11/30 01:21:08;;;;;;;14.00;6.20;;;;;;;3.02;73.16;98776.94;2619581;47;20162;-67
2021/11/30 01:23:38;;;;;;;10.15;5.38;;;;;;;3.02;72.95;98786.53;2620540;54;20037;-67
2021/11/30 01:26:08;;;;;;;8.80;5.95;;;;;;;3.01;72.89;98785.72;2621130;54;20035;-66
2021/11/30 01:28:37;;;;;;;10.98;6.30;;;;;;;3.06;73.22;98793.09;2621644;54;20567;-67
2021/11/30 01:31:08;;;;;;;10.77;5.47;;;;;;;3.04;73.19;98793.25;2621495;54;20572;-67
2021/11/30 01:33:40;;;;;;;10.05;6.00;;;;;;;3.10;73.34;98797.94;2619991;54;20130;-70
2021/11/30 01:36:10;;;;;;;9.55;6.10;;;;;;;3.12;72.99;98800.38;2621643;54;20031;-67
2021/11/30 01:38:40;;;;;;;8.70;6.53;;;;;;;3.08;73.03;98796.41;2620449;54;20038;-67
2021/11/30 01:41:11;;;;;;;7.30;6.05;;;;;;;3.08;72.96;98796.41;2618817;54;20613;-66
2021/11/30 01:43:43;;;;;;;10.45;6.20;;;;;;;3.11;73.11;98806.59;2619181;54;20066;-67
2021/11/30 01:46:25;;;;;;;12.30;6.60;;;;;;;3.12;73.14;98800.38;2617934;54;20076;-67
2021/11/30 01:51:52;;;;;;;13.00;5.97;;;;;;;3.07;72.39;98795.59;2618249;39;20430;-67
2021/11/30 01:54:22;;;;;;;8.07;5.43;;;;;;;3.05;72.62;98789.69;2618703;54;20049;-68
2021/11/30 01:56:52;;;;;;;9.80;5.55;;;;;;;3.06;72.92;98782.66;2619023;39;20727;-67
2021/11/30 01:59:22;;;;;;;11.43;5.88;;;;;;;3.08;72.29;98785.97;2618779;39;20517;-67
2021/11/30 02:01:51;;;;;;;11.73;5.90;;;;;;;3.08;71.91;98778.13;2617956;54;20062;-66
2021/11/30 02:04:24;;;;;;;7.60;5.75;;;;;;;3.07;72.28;98787.75;2618114;47;20053;-66
2021/11/30 02:06:54;;;;;;;7.38;5.50;;;;;;;3.06;72.22;98787.88;2618657;54;20031;-67
2021/11/30 02:09:23;;;;;;;10.70;5.32;;;;;;;3.12;72.24;98792.53;2618556;54;20037;-67
2021/11/30 02:11:53;;;;;;;9.73;5.22;;;;;;;3.12;71.90;98797.78;2618454;54;20557;-67
2021/11/30 02:14:23;;;;;;;9.20;5.13;;;;;;;3.12;72.03;98792.53;2618308;54;20042;-67
2021/11/30 02:16:53;;;;;;;6.88;4.53;;;;;;;3.08;71.78;98793.81;2619036;54;20067;-67
2021/11/30 02:19:26;;;;;;;6.47;4.75;;;;;;;3.06;71.69;98786.13;2618848;54;20550;-68
2021/11/30 02:21:58;;;;;;;10.35;5.03;;;;;;;3.03;71.78;98790.81;2618481;54;20046;-67
2021/11/30 02:24:28;;;;;;;8.27;4.88;;;;;;;3.03;71.94;98785.59;2618913;54;20031;-68
2021/11/30 02:26:57;;;;;;;8.15;5.22;;;;;;;3.03;71.82;98780.38;2618754;54;20035;-67
2021/11/30 02:29:27;;;;;;;9.65;5.53;;;;;;;3.04;71.55;98776.78;2618392;54;20557;-67
2021/11/30 02:31:56;;;;;;;9.82;5.38;;;;;;;3.00;71.86;98770.19;2618526;54;20086;-68
2021/11/30 02:34:26;;;;;;;7.13;5.18;;;;;;;3.03;71.74;98769.91;2619211;39;20430;-67
2021/11/30 02:37:04;;;;;;;11.00;5.68;;;;;;;3.03;72.25;98762.91;2618815;54;20034;-67
2021/11/30 02:39:36;;;;;;;7.88;5.00;;;;;;;3.01;72.04;98761.38;2618942;54;20038;-67
2021/11/30 02:42:08;;;;;;;6.78;4.78;;;;;;;3.00;72.02;98762.38;2620786;54;20045;-67
2021/11/30 02:44:39;;;;;;;6.50;4.55;;;;;;;2.99;71.95;98758.94;2621064;54;20030;-67
2021/11/30 02:47:10;;;;;;;6.28;4.78;;;;;;;3.01;72.09;98764.81;2619296;54;20061;-66
2021/11/30 02:49:45;;;;;;;7.45;5.50;;;;;;;3.10;72.37;98766.59;2617531;54;20073;-67
2021/11/30 02:52:20;;;;;;;8.95;5.20;;;;;;;3.13;72.51;98768.06;2618042;54;20042;-67
2021/11/30 02:54:53;;;;;;;8.57;4.85;;;;;;;3.06;72.18;98769.59;2617788;47;20052;-67
2021/11/30 02:57:24;;;;;;;10.18;4.75;;;;;;;3.10;72.21;98766.59;2618542;54;20026;-67
2021/11/30 02:59:56;;;;;;;8.43;5.22;;;;;;;3.06;72.23;98757.41;2618322;39;20430;-67
2021/11/30 03:02:28;;;;;;;10.57;5.55;;;;;;;3.13;72.59;98757.63;2618468;54;20038;-67
2021/11/30 03:05:00;;;;;;;7.72;5.05;;;;;;;3.14;72.77;98749.66;2618434;54;20561;-67
2021/11/30 03:07:37;;;;;;;9.43;5.25;;;;;;;3.11;72.89;98759.56;2618933;39;20446;-67
2021/11/30 03:10:08;;;;;;;10.40;5.82;;;;;;;3.09;72.68;98753.66;2617790;47;20038;-67
2021/11/30 03:12:38;;;;;;;12.77;6.75;;;;;;;3.07;72.70;98745.97;2618152;54;20033;-67
2021/11/30 03:15:09;;;;;;;10.68;5.88;;;;;;;3.04;73.32;98745.44;2617717;54;20034;-67
2021/11/30 03:17:40;;;;;;;11.07;6.07;;;;;;;3.03;73.46;98738.56;2618173;54;20034;-67
2021/11/30 03:20:11;;;;;;;12.40;6.88;;;;;;;3.07;73.57;98734.72;2618281;54;20037;-67
2021/11/30 03:22:46;;;;;;;15.35;6.45;;;;;;;3.06;73.24;98731.28;2618277;54;20046;-67
2021/11/30 03:25:18;;;;;;;9.02;6.18;;;;;;;3.04;73.33;98721.94;2618628;39;20445;-67
2021/11/30 03:27:49;;;;;;;10.35;6.15;;;;;;;3.03;73.42;98723.72;2617874;54;20038;-67
2021/11/30 03:30:22;;;;;;;11.85;7.20;;;;;;;3.04;73.37;98719.31;2617349;54;20038;-68
2021/11/30 03:35:35;;;;;;;12.15;6.68;;;;;;;3.01;73.56;98698.72;2618251;54;20085;-67
2021/11/30 03:38:07;;;;;;;11.13;7.80;;;;;;;2.97;73.63;98704.22;2620864;54;20026;-67
2021/11/30 03:40:37;;;;;;;13.50;6.90;;;;;;;3.03;74.10;98699.41;2620510;54;20030;-66
2021/11/30 03:43:06;;;;;;;10.23;6.90;;;;;;;3.02;73.79;98701.19;2619353;47;20034;-67
2021/11/30 03:45:36;;;;;;;7.88;6.82;;;;;;;3.05;73.87;98706.09;2620946;54;20026;-67
2021/11/30 03:48:07;;;;;;;11.13;7.03;;;;;;;2.95;73.95;98705.34;2620540;47;20034;-67
2021/11/30 03:50:37;;;;;;;11.63;7.00;;;;;;;2.96;74.48;98694.75;2621041;39;20426;-67
2021/11/30 03:53:09;;;;;;;15.88;7.63;;;;;;;2.99;74.29;98691.03;2618904;54;20026;-67
2021/11/30 03:55:39;;;;;;;9.70;7.22;;;;;;;3.00;74.37;98686.63;2618441;54;20038;-67
2021/11/30 03:58:08;;;;;;;14.27;7.57;;;;;;;2.96;74.23;98684.31;2618766;39;20454;-68
2021/11/30 04:00:38;;;;;;;10.57;7.35;;;;;;;2.98;74.46;98684.19;2618428;54;20057;-67
2021/11/30 04:03:08;;;;;;;10.40;8.00;;;;;;;2.99;75.05;98683.19;2617117;47;20585;-67
2021/11/30 04:05:38;;;;;;;12.30;7.95;;;;;;;2.97;74.79;98682.50;2618612;54;20919;-67
2021/11/30 04:08:10;;;;;;;10.05;7.45;;;;;;;2.97;75.17;98667.66;2618301;54;20038;-68
2021/11/30 04:10:40;;;;;;;10.60;7.05;;;;;;;2.98;75.30;98668.50;2623595;54;20042;-68
2021/11/30 04:13:10;;;;;;;9.18;7.50;;;;;;;2.96;75.29;98673.03;2619278;54;20031;-67
2021/11/30 04:15:39;;;;;;;12.25;8.40;;;;;;;2.92;75.19;98664.69;2617944;54;20057;-67
2021/11/30 04:18:09;;;;;;;14.18;8.20;;;;;;;2.92;75.75;98669.09;2618178;54;20034;-67
2021/11/30 04:20:39;;;;;;;11.80;8.18;;;;;;;2.88;75.72;98662.50;2618054;54;20039;-67
2021/11/30 04:23:11;;;;;;;12.30;7.65;;;;;;;2.89;75.64;98659.75;2617664;54;20061;-67
2021/11/30 04:25:41;;;;;;;11.00;8.07;;;;;;;2.84;75.82;98658.56;2619588;54;20045;-69
2021/11/30 04:28:11;;;;;;;11.57;7.50;;;;;;;2.82;75.89;98650.88;2622225;54;20043;-67
2021/11/30 04:30:41;;;;;;;10.00;7.53;;;;;;;2.78;76.06;98633.88;2623664;54;20044;-67
2021/11/30 04:33:11;;;;;;;9.25;7.97;;;;;;;2.70;76.52;98637.22;2622184;54;20046;-67
2021/11/30 04:35:41;;;;;;;9.32;8.00;;;;;;;2.70;76.85;98636.38;2621043;54;20039;-67
2021/11/30 04:38:13;;;;;;;9.15;7.93;;;;;;;2.68;76.97;98638.31;2623638;54;20081;-68
2021/11/30 04:40:43;;;;;;;14.65;7.15;;;;;;;2.68;76.68;98640.91;2623179;54;20031;-67
2021/11/30 04:43:13;;;;;;;12.80;8.50;;;;;;;2.67;77.08;98628.84;2623296;54;20030;-67
2021/11/30 04:45:57;;;;;;;13.13;8.35;;;;;;;2.66;76.92;98619.38;2623450;54;20035;-68
2021/11/30 04:48:27;;;;;;;10.20;7.20;;;;;;;2.59;77.17;98610.47;2622018;47;20031;-68
2021/11/30 04:50:58;;;;;;;11.18;7.97;;;;;;;2.59;77.43;98606.09;2621591;39;20418;-68
2021/11/30 04:53:32;;;;;;;9.15;7.50;;;;;;;2.55;77.59;98598.69;2620228;54;20045;-68
2021/11/30 04:56:02;;;;;;;9.32;8.02;;;;;;;2.51;77.70;98592.13;2620727;39;20470;-67
2021/11/30 04:58:32;;;;;;;9.85;7.20;;;;;;;2.43;77.73;98591.06;2619569;54;20042;-67
2021/11/30 05:01:02;;;;;;;8.82;7.10;;;;;;;2.39;77.95;98589.72;2618760;54;20026;-67
2021/11/30 05:03:32;;;;;;;10.18;7.60;;;;;;;2.40;78.20;98580.91;2619044;54;20041;-67
2021/11/30 05:06:02;;;;;;;8.55;7.00;;;;;;;2.38;78.00;98582.88;2619072;54;20078;-67
2021/11/30 05:08:36;;;;;;;8.70;7.70;;;;;;;2.35;77.95;98582.31;2618226;47;20031;-67
2021/11/30 05:11:06;;;;;;;11.45;7.88;;;;;;;2.33;78.27;98571.22;2618750;54;20034;-67
2021/11/30 05:13:36;;;;;;;12.80;8.10;;;;;;;2.29;78.42;98569.88;2618915;54;20038;-67
2021/11/30 05:16:06;;;;;;;10.65;8.15;;;;;;;2.28;79.37;98570.81;2618981;54;20037;-67
2021/11/30 05:18:36;;;;;;;12.15;7.40;;;;;;;2.32;79.69;98575.59;2618435;47;20030;-67
2021/11/30 05:21:06;;;;;;;8.40;6.70;;;;;;;2.34;79.90;98578.91;2618463;54;20034;-67
2021/11/30 05:23:40;;;;;;;9.35;7.40;;;;;;;2.32;79.72;98577.41;2618697;47;20057;-67
2021/11/30 05:26:10;;;;;;;;;;;;;;;2.31;79.72;98575.75;2619463;39;20419;-67
2021/11/30 05:28:42;;;;;;;10.65;7.78;;;;;;;2.32;79.66;98573.00;2618948;54;19939;-67
2021/11/30 05:31:14;;;;;;;10.27;7.65;;;;;;;2.31;79.93;98583.59;2617859;47;20037;-67
2021/11/30 05:33:44;;;;;;;10.10;7.47;;;;;;;2.30;79.37;98580.16;2619190;39;20528;-67
2021/11/30 05:36:14;;;;;;;11.93;8.18;;;;;;;2.26;79.31;98584.03;2619020;54;20039;-67
2021/11/30 05:38:46;;;;;;;10.02;7.47;;;;;;;2.18;79.94;98581.31;2619479;31;20492;-67
2021/11/30 05:41:16;;;;;;;8.05;6.65;;;;;;;2.12;80.18;98576.66;2618075;47;20127;-67
2021/11/30 05:43:49;;;;;;;8.63;7.13;;;;;;;2.06;80.52;98570.25;2618223;54;20041;-67
2021/11/30 05:46:20;;;;;;;7.25;6.28;;;;;;;2.14;81.67;98570.34;2618835;54;20034;-66
2021/11/30 05:48:50;;;;;;;6.53;5.47;;;;;;;2.09;81.22;98574.38;2618091;47;20053;-66
2021/11/30 05:51:20;;;;;;;9.52;7.05;;;;;;;2.06;81.79;98575.47;2618234;54;20042;-67
2021/11/30 05:53:52;;;;;;;9.30;6.20;;;;;;;2.09;82.03;98574.38;2617641;54;20037;-67
2021/11/30 05:56:22;;;;;;;7.05;6.32;;;;;;;2.06;81.90;98577.25;2618510;54;20069;-66
2021/11/30 05:58:52;;;;;;;7.78;6.43;;;;;;;2.03;81.95;98570.53;2617815;54;20577;-68
2021/11/30 06:01:26;;;;;;;7.00;6.25;;;;;;;2.02;82.43;98583.72;2617859;47;20046;-67
2021/11/30 06:04:02;;;;;;;6.53;5.82;;;;;;;2.03;82.19;98577.53;2618733;54;20065;-67
2021/11/30 06:06:34;;;;;;;6.60;5.60;;;;;;;2.06;82.15;98572.03;2618658;54;20046;-67
2021/11/30 06:09:10;;;;;;;7.70;5.60;;;;;;;2.07;82.59;98571.88;2619003;54;20542;-67
2021/11/30 06:11:40;;;;;;;7.50;6.13;;;;;;;2.07;82.27;98571.06;2618261;54;20023;-67
2021/11/30 06:14:09;;;;;;;6.78;6.10;;;;;;;2.02;82.16;98563.69;2622184;54;20031;-67
2021/11/30 06:16:39;;;;;;;7.97;6.30;;;;;;;2.01;82.38;98556.84;2621059;54;20034;-67
2021/11/30 06:19:12;;;;;;;6.78;5.82;;;;;;;2.02;82.83;98562.88;2620308;54;20036;-67
2021/11/30 06:21:44;;;;;;;6.55;5.85;;;;;;;2.03;82.89;98557.50;2620069;54;20037;-67
2021/11/30 06:24:17;;;;;;;9.50;6.45;;;;;;;2.05;82.21;98559.97;2619205;47;20038;-67
2021/11/30 06:26:48;;;;;;;7.53;5.82;;;;;;;2.04;82.35;98547.88;2618218;54;20035;-67
2021/11/30 06:29:19;;;;;;;7.13;6.30;;;;;;;2.08;81.38;98544.88;2618137;54;20045;-67
2021/11/30 06:31:50;;;;;;;6.30;5.68;;;;;;;2.10;81.57;98545.53;2618351;39;20530;-67
2021/11/30 06:34:20;;;;;;;5.65;4.75;;;;;;;2.15;81.53;98550.31;2617723;47;20022;-67
2021/11/30 06:36:50;;;;;;;8.02;6.72;;;;;;;2.10;81.33;98534.28;2617907;54;20034;-67
2021/11/30 06:39:22;;;;;;;7.53;6.35;;;;;;;2.11;81.27;98530.69;2618630;54;20034;-67
2021/11/30 06:41:52;;;;;;;7.43;6.00;;;;;;;2.08;80.88;98523.16;2618574;54;20569;-67
2021/11/30 06:44:23;;;;;;;7.22;6.28;;;;;;;2.08;80.92;98528.38;2618618;39;20426;-67
2021/11/30 06:46:54;;;;;;;7.05;5.53;;;;;;;2.10;80.72;98531.69;2618461;47;20037;-67
2021/11/30 06:49:24;;;;;;;8.35;6.00;;;;;;;2.06;80.70;98525.94;2618030;47;20019;-67
2021/11/30 06:51:54;;;;;;;6.05;5.43;;;;;;;2.03;80.66;98525.38;2617744;47;20146;-67
2021/11/30 06:54:27;;;;;;;8.02;6.60;;;;;;;2.02;80.78;98511.53;2618559;54;20034;-67
2021/11/30 06:56:57;;;;;;;6.68;5.50;;;;;;;2.07;81.34;98522.34;2618232;47;20126;-67
2021/11/30 06:59:29;;;;;;;5.40;4.90;;;;;;;2.14;80.69;98504.34;2617845;54;20050;-67
2021/11/30 07:02:01;;;;;;;6.75;5.60;;;;;;;2.14;81.08;98512.16;2617732;54;20117;-67
2021/11/30 07:04:34;;;;;;;8.75;6.93;;;;;;;2.11;80.99;98515.06;2618306;47;20031;-67
2021/11/30 07:07:09;;;;;;;5.20;4.57;;;;;;;2.09;81.21;98519.63;2618601;54;20103;-67
2021/11/30 07:09:57;;;;;;;5.28;4.78;;;;;;;2.10;80.88;98503.00;2617862;51;20045;-68
2021/11/30 07:12:46;;;;;;;6.22;4.65;;;;;;;2.13;80.67;98526.19;2617620;54;20042;-67
2021/11/30 07:15:16;;;;;;;5.82;5.22;;;;;;;2.08;81.06;98507.50;2617993;54;20030;-67
2021/11/30 07:17:46;;;;;;;6.38;5.47;;;;;;;2.12;81.00;98519.28;2618107;39;20438;-67
2021/11/30 07:20:16;;;;;;;5.18;4.40;;;;;;;2.12;81.37;98527.97;2618292;39;20437;-67
2021/11/30 07:22:45;;;;;;;6.03;4.50;;;;;;;2.16;81.36;98516.28;2618286;54;20561;-68
2021/11/30 07:25:18;;;;;;;5.10;4.43;;;;;;;2.22;81.11;98533.13;2618201;54;20089;-67
2021/11/30 07:27:47;;;;;;;5.60;4.25;;;;;;;2.19;80.54;98525.56;2617693;47;20035;-67
2021/11/30 07:30:17;;;;;;;4.25;3.85;;;;;;;2.18;81.05;98527.38;2618392;54;20598;-67
2021/11/30 07:32:47;;;;;;;4.90;4.10;;;;;;;2.22;80.66;98526.13;2618099;54;20053;-67
2021/11/30 07:35:19;;;;;;;4.30;3.63;;;;;;;2.23;80.75;98511.28;2617584;52;20034;-66
2021/11/30 07:37:50;;;;;;;3.95;3.40;;;;;;;2.17;80.88;98512.69;2618345;54;20041;-66
2021/11/30 07:40:22;;;;;;;3.53;3.20;;;;;;;2.18;80.33;98521.34;2619532;54;20035;-66
2021/11/30 07:42:52;;;;;;;4.07;3.67;;;;;;;2.13;80.75;98516.56;2620364;54;20027;-66
2021/11/30 07:45:22;;;;;;;4.35;3.95;;;;;;;2.15;81.17;98519.00;2619933;47;20037;-66
2021/11/30 07:47:51;;;;;;;3.47;3.10;;;;;;;2.20;81.17;98516.78;2618429;54;20041;-66
2021/11/30 07:50:21;;;;;;;3.78;3.38;;;;;;;2.24;81.22;98533.78;2619160;31;20541;-65
2021/11/30 07:52:51;;;;;;;4.13;3.45;;;;;;;2.18;81.29;98529.16;2618766;54;20030;-65
2021/11/30 07:55:23;;;;;;;4.32;3.67;;;;;;;2.18;81.07;98536.97;2620255;54;20026;-65
2021/11/30 07:57:53;;;;;;;4.53;3.92;;;;;;;2.19;80.93;98529.00;2620650;54;20031;-66
2021/11/30 08:00:23;;;;;;;3.47;2.70;;;;;;;2.20;81.18;98535.03;2620228;54;20038;-65
2021/11/30 08:02:53;;;;;;;3.83;3.42;;;;;;;2.27;80.62;98509.19;2619260;54;20122;-66
2021/11/30 08:05:23;;;;;;;3.00;2.70;;;;;;;2.23;80.55;98511.28;2619013;54;20027;-65
2021/11/30 08:07:52;;;;;;;2.40;2.20;;;;;;;2.23;80.89;98519.91;2619135;54;20042;-65
2021/11/30 08:10:28;;;;;;;2.92;2.63;;;;;;;2.26;80.68;98518.81;2618575;54;20038;-66
2021/11/30 08:12:59;;;;;;;2.97;2.45;;;;;;;2.21;80.56;98515.84;2617932;54;20034;-66
2021/11/30 08:15:29;;;;;;;4.22;3.10;;;;;;;2.25;80.75;98513.75;2617821;54;20058;-67
2021/11/30 08:18:03;;;;;;;2.80;2.13;;;;;;;2.26;80.28;98526.66;2617957;54;20042;-66
2021/11/30 08:20:33;;;;;;;2.42;2.17;;;;;;;2.22;80.45;98507.03;2618075;54;20043;-67
2021/11/30 08:23:04;;;;;;;2.40;1.85;;;;;;;2.19;80.46;98515.16;2617294;47;20061;-67
2021/11/30 08:25:36;;;;;;;2.50;2.30;;;;;;;2.20;80.57;98511.56;2618109;54;20031;-67
2021/11/30 08:28:06;;;;;;;2.60;2.22;;;;;;;2.29;80.99;98504.69;2617281;47;20539;-66
2021/11/30 08:30:47;;;;;;;2.30;2.10;;;;;;;2.32;80.50;98491.31;2618710;54;20174;-66
2021/11/30 08:33:17;;;;;;;3.60;2.30;;;;;;;2.38;80.59;98506.38;2618067;54;20565;-67
2021/11/30 08:35:47;;;;;;;1.95;1.70;;;;;;;2.38;80.37;98488.94;2618011;46;20038;-67
2021/11/30 08:38:19;;;;;;;3.38;2.20;;;;;;;2.38;80.21;98481.13;2618751;54;20038;-68
2021/11/30 08:40:52;;;;;;;4.53;2.97;;;;;;;2.39;80.19;98492.38;2618513;47;20031;-67
2021/11/30 08:43:21;;;;;;;2.17;1.98;;;;;;;2.38;80.39;98488.13;2621972;54;20069;-70
2021/11/30 08:45:52;;;;;;;3.17;2.75;;;;;;;2.36;80.84;98484.84;2623005;39;20563;-69
2021/11/30 08:48:24;;;;;;;3.05;2.22;;;;;;;2.36;80.43;98480.44;2620856;54;20041;-68
2021/11/30 08:50:54;;;;;;;2.78;2.45;;;;;;;2.38;80.83;98480.31;2618766;54;20030;-67
2021/11/30 08:53:25;;;;;;;1.48;1.38;;;;;;;2.41;80.66;98486.06;2618863;47;20074;-68
2021/11/30 08:55:57;;;;;;;2.30;2.10;;;;;;;2.38;80.63;98472.47;2619306;54;20027;-68
2021/11/30 08:58:27;;;;;;;3.83;2.03;;;;;;;2.40;80.21;98475.75;2618685;47;20033;-67
2021/11/30 09:00:57;;;;;;;2.65;1.88;;;;;;;2.41;80.47;98486.06;2618670;47;20045;-68
2021/11/30 09:03:28;;;;;;;1.80;1.70;;;;;;;2.38;80.34;98477.69;2618387;47;20022;-67
2021/11/30 09:05:58;;;;;;;2.17;1.92;;;;;;;2.39;80.43;98490.56;2618879;54;20030;-67
2021/11/30 09:08:28;;;;;;;3.08;2.67;;;;;;;2.41;80.41;98474.78;2619084;54;20038;-66
2021/11/30 09:11:00;;;;;;;2.10;1.90;;;;;;;2.41;80.49;98491.25;2618661;54;20038;-67
2021/11/30 09:13:30;;;;;;;2.00;1.80;;;;;;;2.39;80.34;98477.53;2618226;54;20041;-67
2021/11/30 09:16:00;;;;;;;2.30;2.10;;;;;;;2.40;80.87;98479.16;2619156;54;20038;-67
2021/11/30 09:18:31;;;;;;;2.10;1.90;;;;;;;2.40;80.58;98473.13;2618828;54;20033;-66
2021/11/30 09:21:02;;;;;;;1.77;1.60;;;;;;;2.40;80.51;98479.16;2619429;54;20526;-66
2021/11/30 09:23:32;;;;;;;2.17;2.00;;;;;;;2.41;80.66;98467.78;2618808;54;20031;-67
2021/11/30 09:26:06;;;;;;;2.33;1.60;;;;;;;2.47;80.91;98482.81;2618407;47;20041;-66
2021/11/30 09:28:36;;;;;;;2.58;2.10;;;;;;;2.45;80.50;98463.91;2618020;54;20030;-69
2021/11/30 09:31:06;;;;;;;2.45;2.25;;;;;;;2.47;81.15;98477.63;2618435;54;20030;-66
2021/11/30 09:33:43;;;;;;;2.97;2.70;;;;;;;2.48;80.97;98468.00;2618182;54;20034;-66
2021/11/30 09:36:15;;;;;;;3.30;2.40;;;;;;;2.49;81.15;98464.44;2619577;39;20457;-67
2021/11/30 09:38:47;;;;;;;3.72;3.40;;;;;;;2.50;80.88;98460.03;2618431;47;20038;-67
2021/11/30 09:41:19;;;;;;;3.50;3.10;;;;;;;2.57;80.92;98458.44;2617966;47;20042;-67
2021/11/30 09:43:51;;;;;;;4.35;3.58;;;;;;;2.65;80.85;98456.75;2618766;54;20130;-67
2021/11/30 09:46:21;;;;;;;3.20;2.90;;;;;;;2.66;80.64;98466.22;2618756;54;20053;-67
2021/11/30 09:48:51;;;;;;;1.80;1.70;;;;;;;2.67;80.20;98456.59;2618187;54;20026;-67
2021/11/30 09:51:21;;;;;;;1.90;1.73;;;;;;;2.65;80.03;98468.94;2622586;54;20569;-67
2021/11/30 09:53:51;;;;;;;1.77;1.67;;;;;;;2.67;80.63;98467.84;2620702;54;20129;-66
2021/11/30 09:56:24;;;;;;;2.45;1.95;;;;;;;2.61;80.44;98478.91;2619252;39;20418;-68
2021/11/30 09:58:54;;;;;;;1.85;1.52;;;;;;;2.61;80.45;98473.69;2618619;54;20098;-67
2021/11/30 10:01:25;;;;;;;5.07;3.20;;;;;;;2.63;80.75;98471.72;2618867;54;20028;-67
2021/11/30 10:03:55;;;;;;;2.15;1.95;;;;;;;2.64;80.66;98470.75;2618773;49;20034;-67
2021/11/30 10:06:25;;;;;;;2.60;2.40;;;;;;;2.60;80.69;98463.38;2618684;54;20031;-67
2021/11/30 10:08:56;;;;;;;2.85;2.35;;;;;;;2.60;81.16;98460.75;2621745;54;20042;-67
2021/11/30 10:11:34;;;;;;;2.55;1.77;;;;;;;2.66;80.79;98470.63;2623961;54;20035;-67
2021/11/30 10:14:19;;;;;;;1.67;1.48;;;;;;;2.67;80.78;98454.78;2624299;54;20026;-69
2021/11/30 10:17:16;;;;;;;2.92;1.50;;;;;;;2.68;80.48;98464.25;2624606;47;20041;-68
2021/11/30 10:19:54;;;;;;;1.85;1.42;;;;;;;2.71;80.90;98456.13;2624985;54;20081;-69
2021/11/30 10:22:41;;;;;;;1.40;1.30;;;;;;;2.73;80.89;98442.91;2625328;54;20030;-68
2021/11/30 10:25:23;;;;;;;1.50;1.40;;;;;;;2.73;81.23;98448.13;2624587;54;20585;-67
2021/11/30 10:27:57;;;;;;;2.15;1.77;;;;;;;2.75;81.06;98455.84;2624433;54;20043;-67
2021/11/30 10:30:30;;;;;;;1.50;1.35;;;;;;;2.75;81.41;98454.03;2624241;47;20026;-68
2021/11/30 10:33:04;;;;;;;5.30;3.30;;;;;;;2.76;81.49;98453.06;2624505;54;20026;-67
2021/11/30 10:35:34;;;;;;;3.00;2.65;;;;;;;2.79;81.18;98458.00;2621395;47;20038;-68
2021/11/30 10:38:06;;;;;;;4.18;2.38;;;;;;;2.78;81.35;98445.91;2622847;54;20038;-68
2021/11/30 10:40:39;;;;;;;7.88;3.47;;;;;;;2.81;81.79;98444.78;2624905;54;20027;-67
2021/11/30 10:43:13;;;;;;;3.60;2.50;;;;;;;2.87;81.24;98438.97;2623646;54;20089;-68
2021/11/30 10:45:47;;;;;;;6.32;3.25;;;;;;;2.86;81.42;98435.53;2619761;54;20038;-67
2021/11/30 10:48:24;;;;;;;3.53;2.20;;;;;;;2.88;81.36;98435.38;2620041;54;20033;-68
2021/11/30 10:50:57;;;;;;;3.23;2.67;;;;;;;2.88;81.51;98430.16;2619110;54;20026;-68
2021/11/30 10:53:30;;;;;;;4.35;2.20;;;;;;;2.91;81.54;98437.69;2618719;54;20040;-68
2021/11/30 10:56:02;;;;;;;3.77;2.70;;;;;;;2.92;81.57;98432.28;2618427;47;20033;-67
2021/11/30 10:58:38;;;;;;;2.92;2.63;;;;;;;2.97;81.62;98450.09;2618833;54;20044;-67
2021/11/30 11:01:10;;;;;;;3.38;2.55;;;;;;;2.96;81.16;98436.25;2617330;54;20034;-67
2021/11/30 11:03:40;;;;;;;3.97;3.13;;;;;;;3.02;81.38;98428.75;2618248;39;20434;-66
2021/11/30 11:08:55;;;;;;;5.28;3.30;;;;;;;3.03;81.37;98435.63;2618128;47;20052;-67
2021/11/30 11:11:27;;;;;;;3.38;2.78;;;;;;;3.02;81.31;98421.78;2618692;54;20031;-67
2021/11/30 11:14:00;;;;;;;3.30;2.45;;;;;;;3.00;81.71;98399.38;2618586;54;20037;-67
2021/11/30 11:16:31;;;;;;;2.95;2.47;;;;;;;3.01;81.55;98411.47;2617642;54;20026;-69
2021/11/30 11:19:03;;;;;;;7.10;3.88;;;;;;;2.99;81.53;98414.22;2618084;54;20533;-66
2021/11/30 11:21:34;;;;;;;7.13;3.88;;;;;;;2.98;81.71;98394.31;2618662;54;20034;-66
2021/11/30 11:24:13;;;;;;;5.20;3.30;;;;;;;3.00;82.19;98402.00;2618163;54;20030;-66
2021/11/30 11:26:44;;;;;;;8.95;4.97;;;;;;;2.98;82.46;98397.75;2617861;54;20034;-66
2021/11/30 11:29:19;;;;;;;9.50;4.72;;;;;;;3.00;82.40;98409.81;2617968;54;20102;-67
2021/11/30 11:31:51;;;;;;;4.30;2.67;;;;;;;3.02;82.43;98406.09;2618480;54;20580;-69
2021/11/30 11:34:24;;;;;;;4.35;3.08;;;;;;;3.03;82.60;98410.34;2618626;54;20039;-67
2021/11/30 11:36:55;;;;;;;5.13;3.38;;;;;;;3.00;82.76;98409.81;2618338;54;20026;-66
2021/11/30 11:39:27;;;;;;;4.05;2.55;;;;;;;3.03;82.97;98397.28;2618490;54;20049;-66
2021/11/30 11:41:59;;;;;;;4.28;2.70;;;;;;;3.00;82.91;98417.66;2618019;54;20650;-66
2021/11/30 11:44:31;;;;;;;4.47;3.15;;;;;;;3.01;83.03;98421.91;2618561;39;20430;-67
2021/11/30 11:47:08;;;;;;;7.97;4.30;;;;;;;3.02;83.36;98428.75;2617737;54;20576;-68
2021/11/30 11:49:41;;;;;;;7.40;3.88;;;;;;;3.03;83.07;98417.38;2618619;54;20694;-67
2021/11/30 11:52:22;;;;;;;7.63;3.53;;;;;;;3.00;83.33;98430.72;2618355;54;20030;-68
2021/11/30 11:55:00;;;;;;;3.97;3.08;;;;;;;2.97;83.29;98413.56;2619211;39;20418;-67
2021/11/30 11:57:31;;;;;;;2.42;1.95;;;;;;;3.00;83.05;98433.31;2620014;54;20063;-67
2021/11/30 12:00:22;;;;;;;2.03;1.63;;;;;;;2.97;83.19;98422.19;2620979;54;20049;-71
2021/11/30 12:02:53;;;;;;;6.53;3.78;;;;;;;2.97;83.09;98424.81;2624497;54;20046;-71
2021/11/30 12:05:42;;;;;;;5.05;2.55;;;;;;;3.00;83.35;98430.72;2624101;47;20082;-71
2021/11/30 12:08:23;;;;;;;5.55;3.20;;;;;;;3.03;83.69;98441.69;2625161;54;20038;-70